sensor_id;sensor_type;location;lat;lon;timestamp;P1;durP1;ratioP1;P2;durP2;ratioP2
6955;SDS011;50345;51.136;16.886;2024-02-26T00:01:08;151.30;;;96.80;;
6955;SDS011;50345;51.136;16.886;2024-02-26T00:03:33;169.53;;;98.60;;
6955;SDS011;50345;51.136;16.886;2024-02-26T00:06:01;142.77;;;87.20;;
6955;SDS011;50345;51.136;16.886;2024-02-26T00:08:27;140.88;;;83.18;;
6955;SDS011;50345;51.136;16.886;2024-02-26T00:10:53;132.90;;;79.23;;
6955;SDS011;50345;51.136;16.886;2024-02-26T00:13:18;123.33;;;76.30;;
6955;SDS011;50345;51.136;16.886;2024-02-26T00:15:45;110.22;;;69.30;;
6955;SDS011;50345;51.136;16.886;2024-02-26T00:18:11;88.53;;;58.17;;
6955;SDS011;50345;51.136;16.886;2024-02-26T00:20:36;109.63;;;64.17;;
6955;SDS011;50345;51.136;16.886;2024-02-26T00:23:02;116.73;;;70.50;;
6955;SDS011;50345;51.136;16.886;2024-02-26T00:25:28;108.30;;;72.40;;
6955;SDS011;50345;51.136;16.886;2024-02-26T00:27:53;111.40;;;76.03;;
6955;SDS011;50345;51.136;16.886;2024-02-26T00:30:19;110.73;;;67.93;;
6955;SDS011;50345;51.136;16.886;2024-02-26T00:32:44;106.33;;;70.43;;
6955;SDS011;50345;51.136;16.886;2024-02-26T00:35:10;100.53;;;68.80;;
6955;SDS011;50345;51.136;16.886;2024-02-26T00:37:35;103.67;;;68.50;;
6955;SDS011;50345;51.136;16.886;2024-02-26T00:40:01;115.53;;;75.70;;
6955;SDS011;50345;51.136;16.886;2024-02-26T00:42:27;106.13;;;71.60;;
6955;SDS011;50345;51.136;16.886;2024-02-26T00:44:52;108.23;;;69.13;;
6955;SDS011;50345;51.136;16.886;2024-02-26T00:47:18;105.90;;;68.03;;
6955;SDS011;50345;51.136;16.886;2024-02-26T00:49:43;101.90;;;63.70;;
6955;SDS011;50345;51.136;16.886;2024-02-26T00:52:09;91.83;;;62.63;;
6955;SDS011;50345;51.136;16.886;2024-02-26T00:54:34;95.00;;;60.70;;
6955;SDS011;50345;51.136;16.886;2024-02-26T00:57:00;86.40;;;56.40;;
6955;SDS011;50345;51.136;16.886;2024-02-26T00:59:26;91.40;;;63.63;;
6955;SDS011;50345;51.136;16.886;2024-02-26T01:01:51;85.77;;;59.77;;
6955;SDS011;50345;51.136;16.886;2024-02-26T01:04:17;63.20;;;48.23;;
6955;SDS011;50345;51.136;16.886;2024-02-26T01:06:43;69.00;;;49.27;;
6955;SDS011;50345;51.136;16.886;2024-02-26T01:09:08;64.23;;;49.40;;
6955;SDS011;50345;51.136;16.886;2024-02-26T01:11:34;67.57;;;48.17;;
6955;SDS011;50345;51.136;16.886;2024-02-26T01:13:59;60.43;;;42.50;;
6955;SDS011;50345;51.136;16.886;2024-02-26T01:16:25;54.63;;;40.50;;
6955;SDS011;50345;51.136;16.886;2024-02-26T01:18:53;56.90;;;41.25;;
6955;SDS011;50345;51.136;16.886;2024-02-26T01:21:19;53.70;;;42.00;;
6955;SDS011;50345;51.136;16.886;2024-02-26T01:23:44;64.70;;;45.00;;
6955;SDS011;50345;51.136;16.886;2024-02-26T01:26:10;60.10;;;43.27;;
6955;SDS011;50345;51.136;16.886;2024-02-26T01:28:36;57.00;;;37.00;;
6955;SDS011;50345;51.136;16.886;2024-02-26T01:31:01;48.30;;;36.07;;
6955;SDS011;50345;51.136;16.886;2024-02-26T01:33:30;53.13;;;36.55;;
6955;SDS011;50345;51.136;16.886;2024-02-26T01:35:55;56.07;;;35.60;;
6955;SDS011;50345;51.136;16.886;2024-02-26T01:38:21;45.97;;;33.37;;
6955;SDS011;50345;51.136;16.886;2024-02-26T01:40:46;50.00;;;34.77;;
6955;SDS011;50345;51.136;16.886;2024-02-26T01:43:12;49.80;;;34.33;;
6955;SDS011;50345;51.136;16.886;2024-02-26T01:45:38;53.40;;;37.30;;
6955;SDS011;50345;51.136;16.886;2024-02-26T01:48:03;56.63;;;37.67;;
6955;SDS011;50345;51.136;16.886;2024-02-26T01:50:29;49.78;;;34.83;;
6955;SDS011;50345;51.136;16.886;2024-02-26T01:52:55;47.33;;;33.53;;
6955;SDS011;50345;51.136;16.886;2024-02-26T01:55:22;50.55;;;33.55;;
6955;SDS011;50345;51.136;16.886;2024-02-26T01:57:49;46.90;;;31.45;;
6955;SDS011;50345;51.136;16.886;2024-02-26T02:00:17;49.67;;;32.10;;
6955;SDS011;50345;51.136;16.886;2024-02-26T02:02:45;43.42;;;32.17;;
6955;SDS011;50345;51.136;16.886;2024-02-26T02:05:13;44.25;;;33.67;;
6955;SDS011;50345;51.136;16.886;2024-02-26T02:07:40;35.75;;;28.35;;
6955;SDS011;50345;51.136;16.886;2024-02-26T02:10:06;45.55;;;32.47;;
6955;SDS011;50345;51.136;16.886;2024-02-26T02:12:32;38.08;;;30.45;;
6955;SDS011;50345;51.136;16.886;2024-02-26T02:14:59;51.53;;;34.47;;
6955;SDS011;50345;51.136;16.886;2024-02-26T02:17:25;53.53;;;33.85;;
6955;SDS011;50345;51.136;16.886;2024-02-26T02:19:52;45.05;;;31.73;;
6955;SDS011;50345;51.136;16.886;2024-02-26T02:22:18;46.87;;;33.47;;
6955;SDS011;50345;51.136;16.886;2024-02-26T02:24:44;48.40;;;33.83;;
6955;SDS011;50345;51.136;16.886;2024-02-26T02:27:10;47.45;;;29.90;;
6955;SDS011;50345;51.136;16.886;2024-02-26T02:29:36;41.33;;;30.20;;
6955;SDS011;50345;51.136;16.886;2024-02-26T02:32:02;41.15;;;29.83;;
6955;SDS011;50345;51.136;16.886;2024-02-26T02:34:29;37.35;;;31.10;;
6955;SDS011;50345;51.136;16.886;2024-02-26T02:36:56;43.20;;;28.92;;
6955;SDS011;50345;51.136;16.886;2024-02-26T02:39:22;44.30;;;30.57;;
6955;SDS011;50345;51.136;16.886;2024-02-26T02:41:47;39.30;;;30.07;;
6955;SDS011;50345;51.136;16.886;2024-02-26T02:44:13;35.37;;;29.13;;
6955;SDS011;50345;51.136;16.886;2024-02-26T02:46:39;36.33;;;29.63;;
6955;SDS011;50345;51.136;16.886;2024-02-26T02:49:08;44.63;;;28.83;;
6955;SDS011;50345;51.136;16.886;2024-02-26T02:51:36;44.65;;;28.73;;
6955;SDS011;50345;51.136;16.886;2024-02-26T02:54:02;43.25;;;29.63;;
6955;SDS011;50345;51.136;16.886;2024-02-26T02:56:28;39.37;;;29.90;;
6955;SDS011;50345;51.136;16.886;2024-02-26T02:58:54;43.72;;;31.00;;
6955;SDS011;50345;51.136;16.886;2024-02-26T03:01:20;37.70;;;29.50;;
6955;SDS011;50345;51.136;16.886;2024-02-26T03:03:45;38.37;;;29.73;;
6955;SDS011;50345;51.136;16.886;2024-02-26T03:06:11;45.97;;;33.83;;
6955;SDS011;50345;51.136;16.886;2024-02-26T03:08:36;48.47;;;35.27;;
6955;SDS011;50345;51.136;16.886;2024-02-26T03:11:04;46.35;;;32.00;;
6955;SDS011;50345;51.136;16.886;2024-02-26T03:13:30;41.93;;;30.87;;
6955;SDS011;50345;51.136;16.886;2024-02-26T03:15:55;44.10;;;31.70;;
6955;SDS011;50345;51.136;16.886;2024-02-26T03:18:22;54.70;;;35.85;;
6955;SDS011;50345;51.136;16.886;2024-02-26T03:20:48;50.30;;;31.80;;
6955;SDS011;50345;51.136;16.886;2024-02-26T03:23:14;49.30;;;33.58;;
6955;SDS011;50345;51.136;16.886;2024-02-26T03:25:44;37.58;;;29.83;;
6955;SDS011;50345;51.136;16.886;2024-02-26T03:28:13;36.35;;;30.45;;
6955;SDS011;50345;51.136;16.886;2024-02-26T03:30:39;37.80;;;28.03;;
6955;SDS011;50345;51.136;16.886;2024-02-26T03:33:04;39.03;;;26.60;;
6955;SDS011;50345;51.136;16.886;2024-02-26T03:35:30;32.80;;;24.40;;
6955;SDS011;50345;51.136;16.886;2024-02-26T03:37:55;32.23;;;24.90;;
6955;SDS011;50345;51.136;16.886;2024-02-26T03:40:21;35.43;;;25.43;;
6955;SDS011;50345;51.136;16.886;2024-02-26T03:42:47;38.63;;;24.37;;
6955;SDS011;50345;51.136;16.886;2024-02-26T03:45:12;31.80;;;25.10;;
6955;SDS011;50345;51.136;16.886;2024-02-26T03:47:38;34.40;;;26.60;;
6955;SDS011;50345;51.136;16.886;2024-02-26T03:50:06;37.30;;;25.63;;
6955;SDS011;50345;51.136;16.886;2024-02-26T03:52:32;39.25;;;27.10;;
6955;SDS011;50345;51.136;16.886;2024-02-26T03:54:59;42.45;;;27.15;;
6955;SDS011;50345;51.136;16.886;2024-02-26T03:57:24;37.60;;;28.00;;
6955;SDS011;50345;51.136;16.886;2024-02-26T03:59:50;40.60;;;27.77;;
6955;SDS011;50345;51.136;16.886;2024-02-26T04:02:16;39.13;;;26.40;;
6955;SDS011;50345;51.136;16.886;2024-02-26T04:04:41;31.55;;;23.40;;
6955;SDS011;50345;51.136;16.886;2024-02-26T04:07:07;34.40;;;23.40;;
6955;SDS011;50345;51.136;16.886;2024-02-26T04:09:33;35.13;;;25.27;;
6955;SDS011;50345;51.136;16.886;2024-02-26T04:11:58;30.60;;;23.37;;
6955;SDS011;50345;51.136;16.886;2024-02-26T04:14:24;28.80;;;21.40;;
6955;SDS011;50345;51.136;16.886;2024-02-26T04:16:50;25.40;;;21.40;;
6955;SDS011;50345;51.136;16.886;2024-02-26T04:19:17;29.33;;;22.83;;
6955;SDS011;50345;51.136;16.886;2024-02-26T04:21:43;32.33;;;21.77;;
6955;SDS011;50345;51.136;16.886;2024-02-26T04:24:08;31.40;;;23.43;;
6955;SDS011;50345;51.136;16.886;2024-02-26T04:26:34;26.43;;;21.67;;
6955;SDS011;50345;51.136;16.886;2024-02-26T04:29:00;29.23;;;21.27;;
6955;SDS011;50345;51.136;16.886;2024-02-26T04:31:25;28.87;;;21.20;;
6955;SDS011;50345;51.136;16.886;2024-02-26T04:33:51;28.10;;;22.00;;
6955;SDS011;50345;51.136;16.886;2024-02-26T04:36:17;29.73;;;22.37;;
6955;SDS011;50345;51.136;16.886;2024-02-26T04:38:43;29.60;;;20.97;;
6955;SDS011;50345;51.136;16.886;2024-02-26T04:41:09;25.15;;;20.80;;
6955;SDS011;50345;51.136;16.886;2024-02-26T04:43:35;28.67;;;21.77;;
6955;SDS011;50345;51.136;16.886;2024-02-26T04:46:06;31.23;;;24.90;;
6955;SDS011;50345;51.136;16.886;2024-02-26T04:48:33;31.65;;;22.50;;
6955;SDS011;50345;51.136;16.886;2024-02-26T04:50:59;29.17;;;22.25;;
6955;SDS011;50345;51.136;16.886;2024-02-26T04:53:24;28.10;;;23.70;;
6955;SDS011;50345;51.136;16.886;2024-02-26T04:55:50;30.07;;;23.60;;
6955;SDS011;50345;51.136;16.886;2024-02-26T04:58:16;30.95;;;21.88;;
6955;SDS011;50345;51.136;16.886;2024-02-26T05:00:42;26.90;;;21.33;;
6955;SDS011;50345;51.136;16.886;2024-02-26T05:03:08;31.87;;;23.83;;
6955;SDS011;50345;51.136;16.886;2024-02-26T05:05:38;31.08;;;23.88;;
6955;SDS011;50345;51.136;16.886;2024-02-26T05:08:12;39.22;;;27.05;;
6955;SDS011;50345;51.136;16.886;2024-02-26T05:10:38;34.90;;;25.70;;
6955;SDS011;50345;51.136;16.886;2024-02-26T05:13:08;39.00;;;29.13;;
6955;SDS011;50345;51.136;16.886;2024-02-26T05:15:33;40.90;;;31.57;;
6955;SDS011;50345;51.136;16.886;2024-02-26T05:17:59;35.30;;;29.77;;
6955;SDS011;50345;51.136;16.886;2024-02-26T05:20:25;36.67;;;28.37;;
6955;SDS011;50345;51.136;16.886;2024-02-26T05:22:51;40.83;;;29.23;;
6955;SDS011;50345;51.136;16.886;2024-02-26T05:25:16;32.13;;;27.73;;
6955;SDS011;50345;51.136;16.886;2024-02-26T05:27:43;33.67;;;25.10;;
6955;SDS011;50345;51.136;16.886;2024-02-26T05:30:09;30.83;;;25.42;;
6955;SDS011;50345;51.136;16.886;2024-02-26T05:32:36;34.45;;;26.85;;
6955;SDS011;50345;51.136;16.886;2024-02-26T05:35:01;32.23;;;26.77;;
6955;SDS011;50345;51.136;16.886;2024-02-26T05:37:30;34.05;;;25.88;;
6955;SDS011;50345;51.136;16.886;2024-02-26T05:39:56;31.50;;;24.80;;
6955;SDS011;50345;51.136;16.886;2024-02-26T05:42:21;30.80;;;24.37;;
6955;SDS011;50345;51.136;16.886;2024-02-26T05:44:47;30.83;;;23.70;;
6955;SDS011;50345;51.136;16.886;2024-02-26T05:47:13;27.67;;;23.90;;
6955;SDS011;50345;51.136;16.886;2024-02-26T05:49:42;31.70;;;24.33;;
6955;SDS011;50345;51.136;16.886;2024-02-26T05:52:08;30.77;;;24.20;;
6955;SDS011;50345;51.136;16.886;2024-02-26T05:54:33;29.40;;;25.00;;
6955;SDS011;50345;51.136;16.886;2024-02-26T05:56:59;34.03;;;23.10;;
6955;SDS011;50345;51.136;16.886;2024-02-26T05:59:24;28.43;;;23.90;;
6955;SDS011;50345;51.136;16.886;2024-02-26T06:01:50;30.40;;;21.73;;
6955;SDS011;50345;51.136;16.886;2024-02-26T06:04:15;33.80;;;22.87;;
6955;SDS011;50345;51.136;16.886;2024-02-26T06:06:43;31.73;;;23.60;;
6955;SDS011;50345;51.136;16.886;2024-02-26T06:09:10;31.15;;;22.85;;
6955;SDS011;50345;51.136;16.886;2024-02-26T06:11:36;27.10;;;21.17;;
6955;SDS011;50345;51.136;16.886;2024-02-26T06:14:02;30.75;;;21.52;;
6955;SDS011;50345;51.136;16.886;2024-02-26T06:16:28;26.67;;;23.00;;
6955;SDS011;50345;51.136;16.886;2024-02-26T06:18:54;35.30;;;25.37;;
6955;SDS011;50345;51.136;16.886;2024-02-26T06:21:19;29.10;;;24.33;;
6955;SDS011;50345;51.136;16.886;2024-02-26T06:23:45;34.17;;;25.40;;
6955;SDS011;50345;51.136;16.886;2024-02-26T06:26:10;34.17;;;25.17;;
6955;SDS011;50345;51.136;16.886;2024-02-26T06:28:36;30.47;;;23.87;;
6955;SDS011;50345;51.136;16.886;2024-02-26T06:31:05;29.95;;;25.67;;
6955;SDS011;50345;51.136;16.886;2024-02-26T06:33:31;31.55;;;23.58;;
6955;SDS011;50345;51.136;16.886;2024-02-26T06:35:57;32.30;;;24.83;;
6955;SDS011;50345;51.136;16.886;2024-02-26T06:38:23;30.50;;;25.03;;
6955;SDS011;50345;51.136;16.886;2024-02-26T06:40:48;32.90;;;25.27;;
6955;SDS011;50345;51.136;16.886;2024-02-26T06:43:14;34.50;;;24.13;;
6955;SDS011;50345;51.136;16.886;2024-02-26T06:45:39;28.13;;;23.30;;
6955;SDS011;50345;51.136;16.886;2024-02-26T06:48:05;30.53;;;25.33;;
6955;SDS011;50345;51.136;16.886;2024-02-26T06:50:31;34.00;;;24.42;;
6955;SDS011;50345;51.136;16.886;2024-02-26T06:52:57;32.63;;;25.07;;
6955;SDS011;50345;51.136;16.886;2024-02-26T06:55:22;33.80;;;24.90;;
6955;SDS011;50345;51.136;16.886;2024-02-26T06:57:48;40.57;;;28.30;;
6955;SDS011;50345;51.136;16.886;2024-02-26T07:00:14;42.13;;;28.77;;
6955;SDS011;50345;51.136;16.886;2024-02-26T07:02:41;35.42;;;27.75;;
6955;SDS011;50345;51.136;16.886;2024-02-26T07:05:07;43.30;;;27.17;;
6955;SDS011;50345;51.136;16.886;2024-02-26T07:07:34;32.90;;;26.08;;
6955;SDS011;50345;51.136;16.886;2024-02-26T07:09:59;35.97;;;29.30;;
6955;SDS011;50345;51.136;16.886;2024-02-26T07:12:28;40.35;;;29.40;;
6955;SDS011;50345;51.136;16.886;2024-02-26T07:14:56;32.03;;;28.30;;
6955;SDS011;50345;51.136;16.886;2024-02-26T07:17:23;33.63;;;26.80;;
6955;SDS011;50345;51.136;16.886;2024-02-26T07:19:49;33.77;;;26.27;;
6955;SDS011;50345;51.136;16.886;2024-02-26T07:22:14;33.33;;;25.23;;
6955;SDS011;50345;51.136;16.886;2024-02-26T07:24:40;31.63;;;26.53;;
6955;SDS011;50345;51.136;16.886;2024-02-26T07:27:06;37.97;;;25.87;;
6955;SDS011;50345;51.136;16.886;2024-02-26T07:29:31;36.97;;;26.80;;
6955;SDS011;50345;51.136;16.886;2024-02-26T07:31:58;27.35;;;22.88;;
6955;SDS011;50345;51.136;16.886;2024-02-26T07:34:24;33.80;;;25.43;;
6955;SDS011;50345;51.136;16.886;2024-02-26T07:36:54;29.92;;;25.00;;
6955;SDS011;50345;51.136;16.886;2024-02-26T07:39:22;27.42;;;24.20;;
6955;SDS011;50345;51.136;16.886;2024-02-26T07:41:48;30.10;;;24.70;;
6955;SDS011;50345;51.136;16.886;2024-02-26T07:44:16;33.33;;;24.35;;
6955;SDS011;50345;51.136;16.886;2024-02-26T07:46:42;30.87;;;24.00;;
6955;SDS011;50345;51.136;16.886;2024-02-26T07:49:07;41.10;;;25.00;;
6955;SDS011;50345;51.136;16.886;2024-02-26T07:51:33;28.40;;;21.60;;
6955;SDS011;50345;51.136;16.886;2024-02-26T07:53:59;29.27;;;23.25;;
6955;SDS011;50345;51.136;16.886;2024-02-26T07:56:25;26.67;;;22.70;;
6955;SDS011;50345;51.136;16.886;2024-02-26T07:58:51;30.40;;;23.60;;
6955;SDS011;50345;51.136;16.886;2024-02-26T08:01:17;27.70;;;21.17;;
6955;SDS011;50345;51.136;16.886;2024-02-26T08:03:42;22.53;;;19.23;;
6955;SDS011;50345;51.136;16.886;2024-02-26T08:06:08;21.40;;;18.03;;
6955;SDS011;50345;51.136;16.886;2024-02-26T08:08:34;23.40;;;18.33;;
6955;SDS011;50345;51.136;16.886;2024-02-26T08:10:59;25.60;;;18.43;;
6955;SDS011;50345;51.136;16.886;2024-02-26T08:13:25;22.57;;;19.27;;
6955;SDS011;50345;51.136;16.886;2024-02-26T08:15:51;20.03;;;16.63;;
6955;SDS011;50345;51.136;16.886;2024-02-26T08:18:17;23.90;;;18.40;;
6955;SDS011;50345;51.136;16.886;2024-02-26T08:20:43;19.07;;;16.30;;
6955;SDS011;50345;51.136;16.886;2024-02-26T08:23:08;21.97;;;17.27;;
6955;SDS011;50345;51.136;16.886;2024-02-26T08:25:34;21.20;;;17.83;;
6955;SDS011;50345;51.136;16.886;2024-02-26T08:27:59;19.13;;;17.13;;
6955;SDS011;50345;51.136;16.886;2024-02-26T08:30:25;19.60;;;15.60;;
6955;SDS011;50345;51.136;16.886;2024-02-26T08:32:51;23.33;;;17.80;;
6955;SDS011;50345;51.136;16.886;2024-02-26T08:35:17;20.20;;;16.92;;
6955;SDS011;50345;51.136;16.886;2024-02-26T08:37:44;18.75;;;16.75;;
6955;SDS011;50345;51.136;16.886;2024-02-26T08:40:10;21.90;;;17.58;;
6955;SDS011;50345;51.136;16.886;2024-02-26T08:42:36;16.85;;;15.05;;
6955;SDS011;50345;51.136;16.886;2024-02-26T08:45:02;19.73;;;17.67;;
6955;SDS011;50345;51.136;16.886;2024-02-26T08:47:28;17.63;;;14.73;;
6955;SDS011;50345;51.136;16.886;2024-02-26T08:49:53;18.40;;;14.27;;
6955;SDS011;50345;51.136;16.886;2024-02-26T08:52:19;17.03;;;14.40;;
6955;SDS011;50345;51.136;16.886;2024-02-26T08:54:46;18.98;;;14.10;;
6955;SDS011;50345;51.136;16.886;2024-02-26T08:57:12;15.07;;;12.83;;
6955;SDS011;50345;51.136;16.886;2024-02-26T08:59:39;16.70;;;14.20;;
6955;SDS011;50345;51.136;16.886;2024-02-26T09:02:04;14.67;;;12.10;;
6955;SDS011;50345;51.136;16.886;2024-02-26T09:04:30;18.20;;;14.03;;
6955;SDS011;50345;51.136;16.886;2024-02-26T09:06:56;16.47;;;13.53;;
6955;SDS011;50345;51.136;16.886;2024-02-26T09:09:21;14.07;;;12.40;;
6955;SDS011;50345;51.136;16.886;2024-02-26T09:11:47;13.03;;;11.73;;
6955;SDS011;50345;51.136;16.886;2024-02-26T09:14:16;14.30;;;12.30;;
6955;SDS011;50345;51.136;16.886;2024-02-26T09:16:42;13.70;;;10.70;;
6955;SDS011;50345;51.136;16.886;2024-02-26T09:19:07;12.30;;;11.17;;
6955;SDS011;50345;51.136;16.886;2024-02-26T09:21:33;12.90;;;11.00;;
6955;SDS011;50345;51.136;16.886;2024-02-26T09:23:58;13.17;;;10.17;;
6955;SDS011;50345;51.136;16.886;2024-02-26T09:26:24;10.67;;;9.53;;
6955;SDS011;50345;51.136;16.886;2024-02-26T09:28:49;10.20;;;9.20;;
6955;SDS011;50345;51.136;16.886;2024-02-26T09:31:17;10.43;;;9.00;;
6955;SDS011;50345;51.136;16.886;2024-02-26T09:33:43;10.10;;;9.20;;
6955;SDS011;50345;51.136;16.886;2024-02-26T09:36:08;11.20;;;8.50;;
6955;SDS011;50345;51.136;16.886;2024-02-26T09:38:36;12.67;;;8.17;;
6955;SDS011;50345;51.136;16.886;2024-02-26T09:41:03;9.83;;;8.93;;
6955;SDS011;50345;51.136;16.886;2024-02-26T09:43:33;12.23;;;8.80;;
6955;SDS011;50345;51.136;16.886;2024-02-26T09:46:01;8.97;;;7.93;;
6955;SDS011;50345;51.136;16.886;2024-02-26T09:48:28;8.90;;;8.10;;
6955;SDS011;50345;51.136;16.886;2024-02-26T09:50:54;10.38;;;9.05;;
6955;SDS011;50345;51.136;16.886;2024-02-26T09:53:20;9.20;;;8.30;;
6955;SDS011;50345;51.136;16.886;2024-02-26T09:55:47;13.60;;;8.38;;
6955;SDS011;50345;51.136;16.886;2024-02-26T09:58:13;9.70;;;7.80;;
6955;SDS011;50345;51.136;16.886;2024-02-26T10:00:43;10.23;;;8.45;;
6955;SDS011;50345;51.136;16.886;2024-02-26T10:03:17;9.27;;;8.27;;
6955;SDS011;50345;51.136;16.886;2024-02-26T10:05:46;10.43;;;8.68;;
6955;SDS011;50345;51.136;16.886;2024-02-26T10:08:13;9.23;;;7.60;;
6955;SDS011;50345;51.136;16.886;2024-02-26T10:10:39;9.32;;;7.60;;
6955;SDS011;50345;51.136;16.886;2024-02-26T10:13:06;8.00;;;7.35;;
6955;SDS011;50345;51.136;16.886;2024-02-26T10:15:35;8.25;;;6.80;;
6955;SDS011;50345;51.136;16.886;2024-02-26T10:18:07;9.45;;;7.90;;
6955;SDS011;50345;51.136;16.886;2024-02-26T10:20:33;8.88;;;7.97;;
6955;SDS011;50345;51.136;16.886;2024-02-26T10:23:02;9.57;;;7.20;;
6955;SDS011;50345;51.136;16.886;2024-02-26T10:25:28;7.50;;;6.70;;
6955;SDS011;50345;51.136;16.886;2024-02-26T10:27:53;6.80;;;6.10;;
6955;SDS011;50345;51.136;16.886;2024-02-26T10:30:20;7.53;;;6.70;;
6955;SDS011;50345;51.136;16.886;2024-02-26T10:32:46;7.05;;;6.35;;
6955;SDS011;50345;51.136;16.886;2024-02-26T10:35:14;6.85;;;6.15;;
6955;SDS011;50345;51.136;16.886;2024-02-26T10:37:40;6.85;;;6.20;;
6955;SDS011;50345;51.136;16.886;2024-02-26T10:40:09;6.95;;;6.10;;
6955;SDS011;50345;51.136;16.886;2024-02-26T10:42:35;7.20;;;6.50;;
6955;SDS011;50345;51.136;16.886;2024-02-26T10:45:01;7.17;;;6.47;;
6955;SDS011;50345;51.136;16.886;2024-02-26T10:47:27;6.43;;;5.83;;
6955;SDS011;50345;51.136;16.886;2024-02-26T10:49:54;6.75;;;6.05;;
6955;SDS011;50345;51.136;16.886;2024-02-26T10:52:21;8.00;;;7.22;;
6955;SDS011;50345;51.136;16.886;2024-02-26T10:54:50;8.20;;;6.38;;
6955;SDS011;50345;51.136;16.886;2024-02-26T10:57:21;7.47;;;6.78;;
6955;SDS011;50345;51.136;16.886;2024-02-26T10:59:48;6.22;;;5.63;;
6955;SDS011;50345;51.136;16.886;2024-02-26T11:02:16;7.40;;;6.57;;
6955;SDS011;50345;51.136;16.886;2024-02-26T11:04:43;7.07;;;6.37;;
6955;SDS011;50345;51.136;16.886;2024-02-26T11:07:09;6.83;;;6.23;;
6955;SDS011;50345;51.136;16.886;2024-02-26T11:09:35;9.03;;;6.60;;
6955;SDS011;50345;51.136;16.886;2024-02-26T11:12:06;6.57;;;5.83;;
6955;SDS011;50345;51.136;16.886;2024-02-26T11:14:36;7.20;;;6.50;;
6955;SDS011;50345;51.136;16.886;2024-02-26T11:17:04;7.17;;;6.47;;
6955;SDS011;50345;51.136;16.886;2024-02-26T11:19:32;5.83;;;5.33;;
6955;SDS011;50345;51.136;16.886;2024-02-26T11:22:01;6.40;;;5.80;;
6955;SDS011;50345;51.136;16.886;2024-02-26T11:24:27;6.13;;;5.53;;
6955;SDS011;50345;51.136;16.886;2024-02-26T11:26:55;5.90;;;5.40;;
6955;SDS011;50345;51.136;16.886;2024-02-26T11:29:24;9.23;;;6.30;;
6955;SDS011;50345;51.136;16.886;2024-02-26T11:31:53;6.03;;;4.87;;
6955;SDS011;50345;51.136;16.886;2024-02-26T11:34:19;8.87;;;6.30;;
6955;SDS011;50345;51.136;16.886;2024-02-26T11:36:45;9.10;;;5.80;;
6955;SDS011;50345;51.136;16.886;2024-02-26T11:39:11;6.63;;;4.77;;
6955;SDS011;50345;51.136;16.886;2024-02-26T11:41:40;5.33;;;4.87;;
6955;SDS011;50345;51.136;16.886;2024-02-26T11:44:05;4.83;;;4.40;;
6955;SDS011;50345;51.136;16.886;2024-02-26T11:49:02;4.63;;;4.23;;
6955;SDS011;50345;51.136;16.886;2024-02-26T11:51:50;4.87;;;4.47;;
6955;SDS011;50345;51.136;16.886;2024-02-26T11:57:19;5.20;;;4.60;;
6955;SDS011;50345;51.136;16.886;2024-02-26T11:59:45;4.77;;;4.33;;
6955;SDS011;50345;51.136;16.886;2024-02-26T12:02:11;7.00;;;4.20;;
6955;SDS011;50345;51.136;16.886;2024-02-26T12:04:38;3.97;;;3.67;;
6955;SDS011;50345;51.136;16.886;2024-02-26T12:07:04;3.70;;;3.40;;
6955;SDS011;50345;51.136;16.886;2024-02-26T12:12:03;4.73;;;3.27;;
6955;SDS011;50345;51.136;16.886;2024-02-26T12:14:34;3.57;;;3.27;;
6955;SDS011;50345;51.136;16.886;2024-02-26T12:17:03;3.33;;;3.07;;
6955;SDS011;50345;51.136;16.886;2024-02-26T12:19:32;3.73;;;2.80;;
6955;SDS011;50345;51.136;16.886;2024-02-26T12:22:00;3.87;;;2.90;;
6955;SDS011;50345;51.136;16.886;2024-02-26T12:24:26;4.40;;;3.97;;
6955;SDS011;50345;51.136;16.886;2024-02-26T12:26:51;4.37;;;3.97;;
6955;SDS011;50345;51.136;16.886;2024-02-26T12:29:17;4.03;;;3.17;;
6955;SDS011;50345;51.136;16.886;2024-02-26T12:31:42;3.47;;;3.13;;
6955;SDS011;50345;51.136;16.886;2024-02-26T12:34:09;3.90;;;3.60;;
6955;SDS011;50345;51.136;16.886;2024-02-26T12:36:35;4.43;;;3.43;;
6955;SDS011;50345;51.136;16.886;2024-02-26T12:39:01;3.97;;;3.30;;
6955;SDS011;50345;51.136;16.886;2024-02-26T12:41:28;3.80;;;3.23;;
6955;SDS011;50345;51.136;16.886;2024-02-26T12:43:57;5.17;;;4.67;;
6955;SDS011;50345;51.136;16.886;2024-02-26T12:46:23;3.80;;;3.50;;
6955;SDS011;50345;51.136;16.886;2024-02-26T12:48:49;3.13;;;2.83;;
6955;SDS011;50345;51.136;16.886;2024-02-26T12:51:15;4.20;;;3.57;;
6955;SDS011;50345;51.136;16.886;2024-02-26T12:53:42;4.80;;;4.40;;
6955;SDS011;50345;51.136;16.886;2024-02-26T12:56:09;5.17;;;3.87;;
6955;SDS011;50345;51.136;16.886;2024-02-26T12:58:37;4.63;;;4.23;;
6955;SDS011;50345;51.136;16.886;2024-02-26T13:01:05;5.57;;;4.00;;
6955;SDS011;50345;51.136;16.886;2024-02-26T13:03:32;4.07;;;3.53;;
6955;SDS011;50345;51.136;16.886;2024-02-26T13:06:00;4.80;;;3.30;;
6955;SDS011;50345;51.136;16.886;2024-02-26T13:08:27;4.50;;;3.70;;
6955;SDS011;50345;51.136;16.886;2024-02-26T13:10:53;3.60;;;3.10;;
6955;SDS011;50345;51.136;16.886;2024-02-26T13:13:18;4.20;;;3.13;;
6955;SDS011;50345;51.136;16.886;2024-02-26T13:15:45;4.37;;;3.67;;
6955;SDS011;50345;51.136;16.886;2024-02-26T13:18:11;4.90;;;3.30;;
6955;SDS011;50345;51.136;16.886;2024-02-26T13:20:38;3.77;;;3.40;;
6955;SDS011;50345;51.136;16.886;2024-02-26T13:23:07;3.70;;;3.30;;
6955;SDS011;50345;51.136;16.886;2024-02-26T13:25:35;5.40;;;3.83;;
6955;SDS011;50345;51.136;16.886;2024-02-26T13:28:24;5.03;;;3.60;;
6955;SDS011;50345;51.136;16.886;2024-02-26T13:30:56;6.03;;;4.10;;
6955;SDS011;50345;51.136;16.886;2024-02-26T13:33:23;7.63;;;4.63;;
6955;SDS011;50345;51.136;16.886;2024-02-26T13:35:49;7.30;;;3.88;;
6955;SDS011;50345;51.136;16.886;2024-02-26T13:38:15;4.80;;;3.42;;
6955;SDS011;50345;51.136;16.886;2024-02-26T13:40:41;5.83;;;4.23;;
6955;SDS011;50345;51.136;16.886;2024-02-26T13:43:07;6.53;;;5.30;;
6955;SDS011;50345;51.136;16.886;2024-02-26T13:45:36;7.00;;;5.63;;
6955;SDS011;50345;51.136;16.886;2024-02-26T13:48:04;5.75;;;5.20;;
6955;SDS011;50345;51.136;16.886;2024-02-26T13:50:31;4.35;;;3.95;;
6955;SDS011;50345;51.136;16.886;2024-02-26T13:52:57;7.97;;;5.30;;
6955;SDS011;50345;51.136;16.886;2024-02-26T13:55:23;4.53;;;4.13;;
6955;SDS011;50345;51.136;16.886;2024-02-26T13:57:54;6.30;;;4.90;;
6955;SDS011;50345;51.136;16.886;2024-02-26T14:00:20;4.65;;;4.25;;
6955;SDS011;50345;51.136;16.886;2024-02-26T14:02:46;6.57;;;5.03;;
6955;SDS011;50345;51.136;16.886;2024-02-26T14:05:11;5.13;;;4.63;;
6955;SDS011;50345;51.136;16.886;2024-02-26T14:07:37;5.85;;;4.70;;
6955;SDS011;50345;51.136;16.886;2024-02-26T14:10:04;6.28;;;5.30;;
6955;SDS011;50345;51.136;16.886;2024-02-26T14:12:30;6.82;;;4.90;;
6955;SDS011;50345;51.136;16.886;2024-02-26T14:14:55;5.00;;;4.50;;
6955;SDS011;50345;51.136;16.886;2024-02-26T14:17:23;7.45;;;4.63;;
6955;SDS011;50345;51.136;16.886;2024-02-26T14:19:49;6.77;;;5.13;;
6955;SDS011;50345;51.136;16.886;2024-02-26T14:22:15;10.80;;;6.87;;
6955;SDS011;50345;51.136;16.886;2024-02-26T14:24:41;7.45;;;5.00;;
6955;SDS011;50345;51.136;16.886;2024-02-26T14:27:10;8.00;;;6.03;;
6955;SDS011;50345;51.136;16.886;2024-02-26T14:29:40;6.07;;;5.50;;
6955;SDS011;50345;51.136;16.886;2024-02-26T14:32:12;9.52;;;6.68;;